sensor_id;sensor_type;location;lat;lon;timestamp;pressure;altitude;pressure_sealevel;temperature;humidity
69574;BME280;62840;52.366;5.980;2023-02-23T00:01:58;101199.16;;;8.72;75.79
69574;BME280;62840;52.366;5.980;2023-02-23T00:04:27;101200.03;;;8.73;75.74
69574;BME280;62840;52.366;5.980;2023-02-23T00:06:53;101204.38;;;8.74;75.75
69574;BME280;62840;52.366;5.980;2023-02-23T00:09:19;101202.69;;;8.73;75.91
69574;BME280;62840;52.366;5.980;2023-02-23T00:11:45;101206.28;;;8.72;75.89
69574;BME280;62840;52.366;5.980;2023-02-23T00:14:10;101215.97;;;8.73;75.80
69574;BME280;62840;52.366;5.980;2023-02-23T00:16:36;101212.34;;;8.74;75.90
69574;BME280;62840;52.366;5.980;2023-02-23T00:19:02;101207.03;;;8.74;75.97
69574;BME280;62840;52.366;5.980;2023-02-23T00:21:31;101205.22;;;8.74;75.94
69574;BME280;62840;52.366;5.980;2023-02-23T00:23:59;101203.44;;;8.75;75.85
69574;BME280;62840;52.366;5.980;2023-02-23T00:26:28;101208.75;;;8.75;75.97
69574;BME280;62840;52.366;5.980;2023-02-23T00:28:56;101199.81;;;8.76;75.86
69574;BME280;62840;52.366;5.980;2023-02-23T00:31:24;101192.66;;;8.76;75.83
69574;BME280;62840;52.366;5.980;2023-02-23T00:33:50;101191.81;;;8.76;75.83
69574;BME280;62840;52.366;5.980;2023-02-23T00:36:17;101198.81;;;8.77;75.81
69574;BME280;62840;52.366;5.980;2023-02-23T00:38:45;101198.81;;;8.77;75.91
69574;BME280;62840;52.366;5.980;2023-02-23T00:41:13;101197.13;;;8.76;75.96
69574;BME280;62840;52.366;5.980;2023-02-23T00:43:40;101199.81;;;8.76;75.88
69574;BME280;62840;52.366;5.980;2023-02-23T00:46:06;101200.78;;;8.75;75.94
69574;BME280;62840;52.366;5.980;2023-02-23T00:48:33;101198.31;;;8.72;75.93
69574;BME280;62840;52.366;5.980;2023-02-23T00:51:00;101202.56;;;8.74;75.89
69574;BME280;62840;52.366;5.980;2023-02-23T00:53:27;101206.19;;;8.73;75.89
69574;BME280;62840;52.366;5.980;2023-02-23T00:55:56;101198.31;;;8.72;75.88
69574;BME280;62840;52.366;5.980;2023-02-23T00:58:22;101203.63;;;8.72;75.86
69574;BME280;62840;52.366;5.980;2023-02-23T01:00:49;101203.63;;;8.72;75.90
69574;BME280;62840;52.366;5.980;2023-02-23T01:03:15;101201.94;;;8.71;76.00
69574;BME280;62840;52.366;5.980;2023-02-23T01:05:40;101201.94;;;8.71;75.83
69574;BME280;62840;52.366;5.980;2023-02-23T01:08:06;101194.91;;;8.70;75.84
69574;BME280;62840;52.366;5.980;2023-02-23T01:10:32;101199.38;;;8.69;75.94
69574;BME280;62840;52.366;5.980;2023-02-23T01:13:00;101201.06;;;8.70;75.94
69574;BME280;62840;52.366;5.980;2023-02-23T01:15:26;101202.88;;;8.70;75.81
69574;BME280;62840;52.366;5.980;2023-02-23T01:17:51;101200.22;;;8.70;75.87
69574;BME280;62840;52.366;5.980;2023-02-23T01:20:17;101201.06;;;8.70;75.91
69574;BME280;62840;52.366;5.980;2023-02-23T01:22:44;101197.56;;;8.70;75.80
69574;BME280;62840;52.366;5.980;2023-02-23T01:25:11;101201.06;;;8.70;75.81
69574;BME280;62840;52.366;5.980;2023-02-23T01:27:37;101204.59;;;8.71;75.69
69574;BME280;62840;52.366;5.980;2023-02-23T01:30:09;101207.34;;;8.69;75.65
69574;BME280;62840;52.366;5.980;2023-02-23T01:32:36;101206.59;;;8.67;75.80
69574;BME280;62840;52.366;5.980;2023-02-23T01:35:03;101208.31;;;8.68;75.74
69574;BME280;62840;52.366;5.980;2023-02-23T01:37:32;101206.69;;;8.66;75.65
69574;BME280;62840;52.366;5.980;2023-02-23T01:39:59;101211.06;;;8.67;75.67
69574;BME280;62840;52.366;5.980;2023-02-23T01:42:24;101210.09;;;8.68;75.69
69574;BME280;62840;52.366;5.980;2023-02-23T01:45:25;101211.06;;;8.67;75.72
69574;BME280;62840;52.366;5.980;2023-02-23T01:47:55;101205.97;;;8.64;75.74
69574;BME280;62840;52.366;5.980;2023-02-23T01:50:24;101205.97;;;8.64;75.88
69574;BME280;62840;52.366;5.980;2023-02-23T01:52:52;101205.97;;;8.64;75.81
69574;BME280;62840;52.366;5.980;2023-02-23T01:55:20;101204.25;;;8.63;75.71
69574;BME280;62840;52.366;5.980;2023-02-23T01:57:49;101197.25;;;8.62;75.67
69574;BME280;62840;52.366;5.980;2023-02-23T02:00:19;101202.56;;;8.62;75.83
69574;BME280;62840;52.366;5.980;2023-02-23T02:02:49;101202.56;;;8.62;75.68
69574;BME280;62840;52.366;5.980;2023-02-23T02:05:15;101204.25;;;8.63;75.84
69574;BME280;62840;52.366;5.980;2023-02-23T02:07:46;101209.56;;;8.63;75.79
69574;BME280;62840;52.366;5.980;2023-02-23T02:10:14;101207.88;;;8.62;75.76
69574;BME280;62840;52.366;5.980;2023-02-23T02:12:43;101209.56;;;8.63;75.72
69574;BME280;62840;52.366;5.980;2023-02-23T02:15:11;101207.88;;;8.62;75.71
69574;BME280;62840;52.366;5.980;2023-02-23T02:17:42;101207.00;;;8.61;75.63
69574;BME280;62840;52.366;5.980;2023-02-23T02:20:38;101205.31;;;8.60;75.85
69574;BME280;62840;52.366;5.980;2023-02-23T02:23:51;101213.41;;;8.58;75.76
69574;BME280;62840;52.366;5.980;2023-02-23T02:26:39;101207.22;;;8.58;75.76
69574;BME280;62840;52.366;5.980;2023-02-23T02:33:00;101212.31;;;8.61;75.75
69574;BME280;62840;52.366;5.980;2023-02-23T02:36:22;101205.53;;;8.57;75.61
69574;BME280;62840;52.366;5.980;2023-02-23T02:39:27;101214.69;;;8.53;75.68
69574;BME280;62840;52.366;5.980;2023-02-23T02:42:08;101208.50;;;8.52;75.78
69574;BME280;62840;52.366;5.980;2023-02-23T02:44:51;101205.13;;;8.50;75.80
69574;BME280;62840;52.366;5.980;2023-02-23T02:47:27;101205.97;;;8.51;75.84
69574;BME280;62840;52.366;5.980;2023-02-23T02:50:04;101198.06;;;8.49;75.92
69574;BME280;62840;52.366;5.980;2023-02-23T02:52:38;101199.78;;;8.50;75.83
69574;BME280;62840;52.366;5.980;2023-02-23T02:55:15;101199.78;;;8.50;75.85
69574;BME280;62840;52.366;5.980;2023-02-23T02:57:45;101198.06;;;8.49;75.78
69574;BME280;62840;52.366;5.980;2023-02-23T03:00:16;101202.56;;;8.49;75.68
69574;BME280;62840;52.366;5.980;2023-02-23T03:02:44;101202.56;;;8.49;75.72
69574;BME280;62840;52.366;5.980;2023-02-23T03:05:13;101200.81;;;8.48;75.91
69574;BME280;62840;52.366;5.980;2023-02-23T03:07:42;101206.28;;;8.46;75.88
69574;BME280;62840;52.366;5.980;2023-02-23T03:10:25;101196.56;;;8.45;75.84
69574;BME280;62840;52.366;5.980;2023-02-23T03:13:09;101206.28;;;8.46;75.98
69574;BME280;62840;52.366;5.980;2023-02-23T03:15:55;101198.28;;;8.46;76.00
69574;BME280;62840;52.366;5.980;2023-02-23T03:18:45;101205.31;;;8.47;75.76
69574;BME280;62840;52.366;5.980;2023-02-23T03:21:25;101207.13;;;8.47;75.85
69574;BME280;62840;52.366;5.980;2023-02-23T03:24:05;101213.28;;;8.47;75.95
69574;BME280;62840;52.366;5.980;2023-02-23T03:26:50;101218.59;;;8.47;75.83
69574;BME280;62840;52.366;5.980;2023-02-23T03:29:26;101211.47;;;8.48;75.98
69574;BME280;62840;52.366;5.980;2023-02-23T03:32:03;101220.41;;;8.47;75.90
69574;BME280;62840;52.366;5.980;2023-02-23T03:34:39;101224.88;;;8.46;75.97
69574;BME280;62840;52.366;5.980;2023-02-23T03:37:12;101225.06;;;8.43;75.81
69574;BME280;62840;52.366;5.980;2023-02-23T03:39:50;101226.78;;;8.44;75.81
69574;BME280;62840;52.366;5.980;2023-02-23T03:42:29;101228.59;;;8.44;75.94
69574;BME280;62840;52.366;5.980;2023-02-23T03:45:03;101223.38;;;8.42;75.89
69574;BME280;62840;52.366;5.980;2023-02-23T03:47:34;101227.94;;;8.40;75.81
69574;BME280;62840;52.366;5.980;2023-02-23T03:50:08;101223.59;;;8.39;76.02
69574;BME280;62840;52.366;5.980;2023-02-23T03:52:43;101224.53;;;8.38;75.87
69574;BME280;62840;52.366;5.980;2023-02-23T03:55:16;101226.34;;;8.37;76.04
69574;BME280;62840;52.366;5.980;2023-02-23T03:57:48;101233.34;;;8.38;76.02
69574;BME280;62840;52.366;5.980;2023-02-23T04:00:22;101235.16;;;8.38;76.03
69574;BME280;62840;52.366;5.980;2023-02-23T04:02:53;101229.75;;;8.40;75.93
69574;BME280;62840;52.366;5.980;2023-02-23T04:05:24;101232.28;;;8.41;75.85
69574;BME280;62840;52.366;5.980;2023-02-23T04:07:53;101232.41;;;8.40;75.95
69574;BME280;62840;52.366;5.980;2023-02-23T04:10:21;101234.22;;;8.39;75.70
69574;BME280;62840;52.366;5.980;2023-02-23T04:12:56;101234.22;;;8.39;75.82
69574;BME280;62840;52.366;5.980;2023-02-23T04:15:31;101244.84;;;8.39;75.85
69574;BME280;62840;52.366;5.980;2023-02-23T04:18:02;101243.13;;;8.38;75.83
69574;BME280;62840;52.366;5.980;2023-02-23T04:20:28;101245.03;;;8.36;75.87
69574;BME280;62840;52.366;5.980;2023-02-23T04:22:54;101239.72;;;8.36;75.93
69574;BME280;62840;52.366;5.980;2023-02-23T04:25:20;101243.34;;;8.35;76.02
69574;BME280;62840;52.366;5.980;2023-02-23T04:27:46;101247.91;;;8.33;75.87
69574;BME280;62840;52.366;5.980;2023-02-23T04:30:15;101241.84;;;8.31;75.96
69574;BME280;62840;52.366;5.980;2023-02-23T04:32:41;101251.72;;;8.29;75.86
69574;BME280;62840;52.366;5.980;2023-02-23T04:35:08;101245.66;;;8.27;75.92
69574;BME280;62840;52.366;5.980;2023-02-23T04:37:34;101251.19;;;8.24;75.96
69574;BME280;62840;52.366;5.980;2023-02-23T04:40:00;101246.94;;;8.21;76.03
69574;BME280;62840;52.366;5.980;2023-02-23T04:42:26;101244.38;;;8.20;75.96
69574;BME280;62840;52.366;5.980;2023-02-23T04:44:51;101246.28;;;8.17;76.03
69574;BME280;62840;52.366;5.980;2023-02-23T04:47:20;101252.56;;;8.16;76.08
69574;BME280;62840;52.366;5.980;2023-02-23T04:49:45;101253.50;;;8.15;76.07
69574;BME280;62840;52.366;5.980;2023-02-23T04:52:11;101257.13;;;8.14;76.11
69574;BME280;62840;52.366;5.980;2023-02-23T04:54:37;101250.91;;;8.14;76.03
69574;BME280;62840;52.366;5.980;2023-02-23T04:57:03;101260.69;;;8.13;76.10
69574;BME280;62840;52.366;5.980;2023-02-23T04:59:30;101253.69;;;8.12;75.92
69574;BME280;62840;52.366;5.980;2023-02-23T05:01:56;101259.00;;;8.12;75.93
69574;BME280;62840;52.366;5.980;2023-02-23T05:04:25;101265.25;;;8.11;76.08
69574;BME280;62840;52.366;5.980;2023-02-23T05:06:51;101260.06;;;8.10;75.99
69574;BME280;62840;52.366;5.980;2023-02-23T05:09:16;101262.81;;;8.08;75.98
69574;BME280;62840;52.366;5.980;2023-02-23T05:11:42;101257.50;;;8.08;76.07
69574;BME280;62840;52.366;5.980;2023-02-23T05:14:08;101253.03;;;8.09;76.10
69574;BME280;62840;52.366;5.980;2023-02-23T05:16:34;101260.91;;;8.10;76.22
69574;BME280;62840;52.366;5.980;2023-02-23T05:19:00;101267.91;;;8.11;76.15
69574;BME280;62840;52.366;5.980;2023-02-23T05:21:28;101269.63;;;8.12;76.04
69574;BME280;62840;52.366;5.980;2023-02-23T05:23:54;101267.75;;;8.14;76.23
69574;BME280;62840;52.366;5.980;2023-02-23T05:26:20;101278.38;;;8.14;76.11
69574;BME280;62840;52.366;5.980;2023-02-23T05:28:46;101267.75;;;8.14;76.21
69574;BME280;62840;52.366;5.980;2023-02-23T05:31:11;101273.06;;;8.14;76.06
69574;BME280;62840;52.366;5.980;2023-02-23T05:33:37;101274.75;;;8.15;76.08
69574;BME280;62840;52.366;5.980;2023-02-23T05:36:04;101276.47;;;8.16;76.17
69574;BME280;62840;52.366;5.980;2023-02-23T05:38:33;101279.13;;;8.16;76.18
69574;BME280;62840;52.366;5.980;2023-02-23T05:41:03;101276.34;;;8.18;76.03
69574;BME280;62840;52.366;5.980;2023-02-23T05:43:30;101272.84;;;8.17;76.18
69574;BME280;62840;52.366;5.980;2023-02-23T05:45:56;101279.00;;;8.18;76.07
69574;BME280;62840;52.366;5.980;2023-02-23T05:48:21;101278.16;;;8.17;76.09
69574;BME280;62840;52.366;5.980;2023-02-23T05:50:47;101274.53;;;8.18;76.06
69574;BME280;62840;52.366;5.980;2023-02-23T05:53:13;101280.81;;;8.17;76.06
69574;BME280;62840;52.366;5.980;2023-02-23T05:55:41;101274.66;;;8.17;76.09
69574;BME280;62840;52.366;5.980;2023-02-23T05:58:07;101280.06;;;8.15;76.09
69574;BME280;62840;52.366;5.980;2023-02-23T06:00:32;101284.53;;;8.15;76.20
69574;BME280;62840;52.366;5.980;2023-02-23T06:02:58;101283.69;;;8.14;76.14
69574;BME280;62840;52.366;5.980;2023-02-23T06:05:24;101290.91;;;8.12;76.07
69574;BME280;62840;52.366;5.980;2023-02-23T06:07:50;101297.91;;;8.13;76.16
69574;BME280;62840;52.366;5.980;2023-02-23T06:10:16;101289.09;;;8.13;76.11
69574;BME280;62840;52.366;5.980;2023-02-23T06:12:44;101289.16;;;8.11;76.12
69574;BME280;62840;52.366;5.980;2023-02-23T06:15:10;101294.47;;;8.11;76.30
69574;BME280;62840;52.366;5.980;2023-02-23T06:17:36;101292.59;;;8.13;76.27
69574;BME280;62840;52.366;5.980;2023-02-23T06:20:02;101297.91;;;8.13;76.21
69574;BME280;62840;52.366;5.980;2023-02-23T06:22:28;101299.63;;;8.14;76.25
69574;BME280;62840;52.366;5.980;2023-02-23T06:24:54;101301.53;;;8.12;76.23
69574;BME280;62840;52.366;5.980;2023-02-23T06:27:20;101317.47;;;8.12;76.36
69574;BME280;62840;52.366;5.980;2023-02-23T06:29:48;101305.09;;;8.11;76.37
69574;BME280;62840;52.366;5.980;2023-02-23T06:32:14;101308.72;;;8.10;76.36
69574;BME280;62840;52.366;5.980;2023-02-23T06:34:40;101314.06;;;8.10;76.44
69574;BME280;62840;52.366;5.980;2023-02-23T06:37:05;101322.78;;;8.12;76.38
69574;BME280;62840;52.366;5.980;2023-02-23T06:39:31;101312.16;;;8.12;76.53
69574;BME280;62840;52.366;5.980;2023-02-23T06:41:57;101315.75;;;8.11;76.40
69574;BME280;62840;52.366;5.980;2023-02-23T06:44:23;101320.13;;;8.12;76.45
69574;BME280;62840;52.366;5.980;2023-02-23T06:46:51;101324.47;;;8.13;76.39
69574;BME280;62840;52.366;5.980;2023-02-23T06:49:17;101326.19;;;8.14;76.46
69574;BME280;62840;52.366;5.980;2023-02-23T06:51:42;101325.31;;;8.14;76.41
69574;BME280;62840;52.366;5.980;2023-02-23T06:54:08;101335.09;;;8.13;76.48
69574;BME280;62840;52.366;5.980;2023-02-23T06:56:34;101325.31;;;8.14;76.49
69574;BME280;62840;52.366;5.980;2023-02-23T06:59:00;101327.03;;;8.15;76.42
69574;BME280;62840;52.366;5.980;2023-02-23T07:01:25;101327.88;;;8.15;76.49
69574;BME280;62840;52.366;5.980;2023-02-23T07:03:54;101322.56;;;8.15;76.54
69574;BME280;62840;52.366;5.980;2023-02-23T07:06:20;101331.50;;;8.14;76.37
69574;BME280;62840;52.366;5.980;2023-02-23T07:08:45;101334.91;;;8.16;76.42
69574;BME280;62840;52.366;5.980;2023-02-23T07:11:13;101333.94;;;8.17;76.48
69574;BME280;62840;52.366;5.980;2023-02-23T07:13:40;101338.28;;;8.18;76.38
69574;BME280;62840;52.366;5.980;2023-02-23T07:16:07;101345.34;;;8.20;76.31
69574;BME280;62840;52.366;5.980;2023-02-23T07:18:33;101354.06;;;8.22;76.45
69574;BME280;62840;52.366;5.980;2023-02-23T07:21:02;101349.69;;;8.21;76.24
69574;BME280;62840;52.366;5.980;2023-02-23T07:23:28;101364.69;;;8.22;76.47
69574;BME280;62840;52.366;5.980;2023-02-23T07:25:53;101355.97;;;8.20;76.37
69574;BME280;62840;52.366;5.980;2023-02-23T07:28:19;101362.97;;;8.21;76.38
69574;BME280;62840;52.366;5.980;2023-02-23T07:30:45;101370.94;;;8.21;76.44
69574;BME280;62840;52.366;5.980;2023-02-23T07:33:11;101367.44;;;8.20;76.41
69574;BME280;62840;52.366;5.980;2023-02-23T07:35:37;101370.00;;;8.22;76.45
69574;BME280;62840;52.366;5.980;2023-02-23T07:38:05;101371.91;;;8.20;76.44
69574;BME280;62840;52.366;5.980;2023-02-23T07:40:31;101378.91;;;8.21;76.35
69574;BME280;62840;52.366;5.980;2023-02-23T07:42:56;101383.38;;;8.20;76.41
69574;BME280;62840;52.366;5.980;2023-02-23T07:45:22;101380.72;;;8.20;76.55
69574;BME280;62840;52.366;5.980;2023-02-23T07:47:48;101385.09;;;8.21;76.57
69574;BME280;62840;52.366;5.980;2023-02-23T07:50:14;101389.53;;;8.21;76.42
69574;BME280;62840;52.366;5.980;2023-02-23T07:52:41;101387.00;;;8.19;76.34
69574;BME280;62840;52.366;5.980;2023-02-23T07:55:10;101393.16;;;8.20;76.58
69574;BME280;62840;52.366;5.980;2023-02-23T07:57:37;101388.69;;;8.20;76.47
69574;BME280;62840;52.366;5.980;2023-02-23T08:00:03;101394.00;;;8.20;76.44
69574;BME280;62840;52.366;5.980;2023-02-23T08:02:30;101399.22;;;8.22;76.60
69574;BME280;62840;52.366;5.980;2023-02-23T08:04:56;101391.25;;;8.22;76.56
69574;BME280;62840;52.366;5.980;2023-02-23T08:07:22;101398.25;;;8.23;76.72
69574;BME280;62840;52.366;5.980;2023-02-23T08:09:48;101400.00;;;8.24;76.56
69574;BME280;62840;52.366;5.980;2023-02-23T08:12:16;101396.38;;;8.25;76.68
69574;BME280;62840;52.366;5.980;2023-02-23T08:14:42;101404.34;;;8.25;76.55
69574;BME280;62840;52.366;5.980;2023-02-23T08:17:08;101401.50;;;8.28;76.44
69574;BME280;62840;52.366;5.980;2023-02-23T08:19:35;101402.13;;;8.31;76.55
69574;BME280;62840;52.366;5.980;2023-02-23T08:22:01;101400.25;;;8.33;76.56
69574;BME280;62840;52.366;5.980;2023-02-23T08:24:27;101410.78;;;8.35;76.43
69574;BME280;62840;52.366;5.980;2023-02-23T08:26:53;101415.13;;;8.36;76.58
69574;BME280;62840;52.366;5.980;2023-02-23T08:29:21;101418.53;;;8.38;76.65
69574;BME280;62840;52.366;5.980;2023-02-23T08:31:47;101414.94;;;8.39;76.53
69574;BME280;62840;52.366;5.980;2023-02-23T08:34:13;101415.69;;;8.41;76.65
69574;BME280;62840;52.366;5.980;2023-02-23T08:36:39;101418.16;;;8.44;76.55
69574;BME280;62840;52.366;5.980;2023-02-23T08:39:04;101420.59;;;8.47;76.61
69574;BME280;62840;52.366;5.980;2023-02-23T08:41:30;101416.06;;;8.49;76.52
69574;BME280;62840;52.366;5.980;2023-02-23T08:43:57;101428.41;;;8.50;76.54
69574;BME280;62840;52.366;5.980;2023-02-23T08:46:25;101422.13;;;8.51;76.48
69574;BME280;62840;52.366;5.980;2023-02-23T08:48:51;101429.03;;;8.54;76.52
69574;BME280;62840;52.366;5.980;2023-02-23T08:51:17;101426.47;;;8.52;76.57
69574;BME280;62840;52.366;5.980;2023-02-23T08:53:43;101428.19;;;8.53;76.56
69574;BME280;62840;52.366;5.980;2023-02-23T08:56:09;101438.81;;;8.53;76.60
69574;BME280;62840;52.366;5.980;2023-02-23T08:58:36;101432.53;;;8.54;76.49
69574;BME280;62840;52.366;5.980;2023-02-23T09:01:02;101429.88;;;8.54;76.68
69574;BME280;62840;52.366;5.980;2023-02-23T09:03:31;101427.22;;;8.54;76.54
69574;BME280;62840;52.366;5.980;2023-02-23T09:06:05;101432.38;;;8.57;76.55
69574;BME280;62840;52.366;5.980;2023-02-23T09:08:33;101438.44;;;8.59;76.53
69574;BME280;62840;52.366;5.980;2023-02-23T09:10:59;101442.69;;;8.62;76.61
69574;BME280;62840;52.366;5.980;2023-02-23T09:13:24;101436.53;;;8.62;76.46
69574;BME280;62840;52.366;5.980;2023-02-23T09:15:50;101438.22;;;8.63;76.49
69574;BME280;62840;52.366;5.980;2023-02-23T09:18:16;101436.31;;;8.65;76.57
69574;BME280;62840;52.366;5.980;2023-02-23T09:20:44;101441.56;;;8.66;76.51
69574;BME280;62840;52.366;5.980;2023-02-23T09:23:11;101446.75;;;8.68;76.56
69574;BME280;62840;52.366;5.980;2023-02-23T09:25:40;101443.25;;;8.67;76.60
69574;BME280;62840;52.366;5.980;2023-02-23T09:28:06;101445.06;;;8.67;76.72
69574;BME280;62840;52.366;5.980;2023-02-23T09:30:32;101450.28;;;8.68;76.58
69574;BME280;62840;52.366;5.980;2023-02-23T09:32:57;101451.00;;;8.70;76.73
69574;BME280;62840;52.366;5.980;2023-02-23T09:35:23;101457.22;;;8.71;76.66
69574;BME280;62840;52.366;5.980;2023-02-23T09:37:53;101455.31;;;8.73;76.61
69574;BME280;62840;52.366;5.980;2023-02-23T09:40:23;101459.66;;;8.74;76.60
69574;BME280;62840;52.366;5.980;2023-02-23T09:42:57;101458.72;;;8.75;76.61
69574;BME280;62840;52.366;5.980;2023-02-23T09:45:34;101464.03;;;8.75;76.76
69574;BME280;62840;52.366;5.980;2023-02-23T09:48:14;101464.59;;;8.80;76.65
69574;BME280;62840;52.366;5.980;2023-02-23T09:50:45;101468.94;;;8.81;76.60
69574;BME280;62840;52.366;5.980;2023-02-23T09:53:25;101471.41;;;8.84;76.73
69574;BME280;62840;52.366;5.980;2023-02-23T09:55:56;101465.13;;;8.85;76.66
69574;BME280;62840;52.366;5.980;2023-02-23T09:58:25;101466.63;;;8.89;76.67
69574;BME280;62840;52.366;5.980;2023-02-23T10:01:20;101462.84;;;8.93;76.59
69574;BME280;62840;52.366;5.980;2023-02-23T10:04:12;101458.34;;;8.94;76.68
69574;BME280;62840;52.366;5.980;2023-02-23T10:06:51;101460.94;;;8.95;76.58
69574;BME280;62840;52.366;5.980;2023-02-23T10:09:30;101462.63;;;8.96;76.66
69574;BME280;62840;52.366;5.980;2023-02-23T10:12:12;101469.00;;;8.94;76.49
69574;BME280;62840;52.366;5.980;2023-02-23T10:15:11;101470.81;;;8.93;76.55
69574;BME280;62840;52.366;5.980;2023-02-23T10:17:51;101470.81;;;8.93;76.61
69574;BME280;62840;52.366;5.980;2023-02-23T10:20:28;101470.81;;;8.93;76.66
69574;BME280;62840;52.366;5.980;2023-02-23T10:23:04;101468.16;;;8.93;76.71
69574;BME280;62840;52.366;5.980;2023-02-23T10:25:41;101469.22;;;8.91;76.56
69574;BME280;62840;52.366;5.980;2023-02-23T10:28:12;101487.72;;;8.92;76.52
69574;BME280;62840;52.366;5.980;2023-02-23T10:30:40;101474.31;;;8.94;76.52
69574;BME280;62840;52.366;5.980;2023-02-23T10:33:13;101478.56;;;8.96;76.40
69574;BME280;62840;52.366;5.980;2023-02-23T10:35:43;101487.53;;;8.95;76.56
69574;BME280;62840;52.366;5.980;2023-02-23T10:38:13;101485.72;;;8.96;76.61
69574;BME280;62840;52.366;5.980;2023-02-23T10:40:44;101491.97;;;8.95;76.49
69574;BME280;62840;52.366;5.980;2023-02-23T10:43:14;101496.44;;;8.94;76.55
69574;BME280;62840;52.366;5.980;2023-02-23T10:45:43;101493.03;;;8.92;76.63
69574;BME280;62840;52.366;5.980;2023-02-23T10:48:16;101500.06;;;8.93;76.61
69574;BME280;62840;52.366;5.980;2023-02-23T10:50:46;101498.34;;;8.92;76.43
69574;BME280;62840;52.366;5.980;2023-02-23T10:53:16;101503.66;;;8.92;76.44
69574;BME280;62840;52.366;5.980;2023-02-23T10:55:59;101499.19;;;8.93;76.59
69574;BME280;62840;52.366;5.980;2023-02-23T10:58:29;101493.78;;;8.94;76.66
69574;BME280;62840;52.366;5.980;2023-02-23T11:01:04;101503.50;;;8.95;76.63
69574;BME280;62840;52.366;5.980;2023-02-23T11:03:33;101507.63;;;8.99;76.51
69574;BME280;62840;52.366;5.980;2023-02-23T11:06:03;101503.28;;;8.98;76.48
69574;BME280;62840;52.366;5.980;2023-02-23T11:08:33;101506.69;;;9.00;76.38
69574;BME280;62840;52.366;5.980;2023-02-23T11:11:22;101508.22;;;9.05;76.59
69574;BME280;62840;52.366;5.980;2023-02-23T11:13:50;101507.31;;;9.04;76.53
69574;BME280;62840;52.366;5.980;2023-02-23T11:16:18;101506.47;;;9.04;76.36
69574;BME280;62840;52.366;5.980;2023-02-23T11:18:51;101503.81;;;9.04;76.32
69574;BME280;62840;52.366;5.980;2023-02-23T11:21:23;101519.03;;;9.01;76.22
69574;BME280;62840;52.366;5.980;2023-02-23T11:23:52;101515.63;;;8.99;76.38
69574;BME280;62840;52.366;5.980;2023-02-23T11:26:28;101518.28;;;8.99;76.30
69574;BME280;62840;52.366;5.980;2023-02-23T11:29:04;101515.63;;;8.99;76.34
69574;BME280;62840;52.366;5.980;2023-02-23T11:31:40;101517.44;;;8.99;76.44
69574;BME280;62840;52.366;5.980;2023-02-23T11:34:21;101513.91;;;8.98;76.31
69574;BME280;62840;52.366;5.980;2023-02-23T11:37:05;101524.56;;;8.98;76.49
69574;BME280;62840;52.366;5.980;2023-02-23T11:39:33;101524.56;;;8.98;76.53
69574;BME280;62840;52.366;5.980;2023-02-23T11:42:13;101520.09;;;8.99;76.40
69574;BME280;62840;52.366;5.980;2023-02-23T11:44:42;101520.94;;;8.99;76.30
69574;BME280;62840;52.366;5.980;2023-02-23T11:47:16;101512.00;;;9.00;76.32
69574;BME280;62840;52.366;5.980;2023-02-23T11:49:47;101512.00;;;9.00;76.09
69574;BME280;62840;52.366;5.980;2023-02-23T11:52:17;101510.13;;;9.03;76.30
69574;BME280;62840;52.366;5.980;2023-02-23T11:54:54;101518.84;;;9.05;76.18
69574;BME280;62840;52.366;5.980;2023-02-23T11:57:27;101515.22;;;9.06;76.32
69574;BME280;62840;52.366;5.980;2023-02-23T11:59:56;101521.38;;;9.06;76.34
69574;BME280;62840;52.366;5.980;2023-02-23T12:02:25;101510.66;;;9.08;76.08
69574;BME280;62840;52.366;5.980;2023-02-23T12:05:03;101511.41;;;9.10;76.05
69574;BME280;62840;52.366;5.980;2023-02-23T12:07:35;101514.91;;;9.10;76.08
69574;BME280;62840;52.366;5.980;2023-02-23T12:10:10;101508.66;;;9.11;76.18
69574;BME280;62840;52.366;5.980;2023-02-23T12:12:54;101505.88;;;9.13;76.05
69574;BME280;62840;52.366;5.980;2023-02-23T12:15:35;101513.75;;;9.14;76.06
69574;BME280;62840;52.366;5.980;2023-02-23T12:18:15;101511.94;;;9.15;76.20
69574;BME280;62840;52.366;5.980;2023-02-23T12:20:50;101515.47;;;9.15;76.02
69574;BME280;62840;52.366;5.980;2023-02-23T12:23:25;101513.47;;;9.19;76.15
69574;BME280;62840;52.366;5.980;2023-02-23T12:25:57;101518.69;;;9.20;76.06
69574;BME280;62840;52.366;5.980;2023-02-23T12:28:36;101511.47;;;9.23;76.02
69574;BME280;62840;52.366;5.980;2023-02-23T12:31:18;101516.78;;;9.23;75.81
69574;BME280;62840;52.366;5.980;2023-02-23T12:33:52;101523.03;;;9.21;75.99
69574;BME280;62840;52.366;5.980;2023-02-23T12:36:26;101519.53;;;9.21;75.92
69574;BME280;62840;52.366;5.980;2023-02-23T12:39:03;101522.09;;;9.23;75.86
69574;BME280;62840;52.366;5.980;2023-02-23T12:41:42;101524.88;;;9.21;75.72
69574;BME280;62840;52.366;5.980;2023-02-23T12:44:27;101529.34;;;9.20;75.82
69574;BME280;62840;52.366;5.980;2023-02-23T12:47:03;101530.41;;;9.18;75.79
69574;BME280;62840;52.366;5.980;2023-02-23T12:49:41;101526.09;;;9.15;75.65
69574;BME280;62840;52.366;5.980;2023-02-23T12:52:12;101521.84;;;9.13;75.82
69574;BME280;62840;52.366;5.980;2023-02-23T12:54:43;101523.75;;;9.11;75.92
69574;BME280;62840;52.366;5.980;2023-02-23T12:57:16;101519.47;;;9.08;75.85
69574;BME280;62840;52.366;5.980;2023-02-23T13:03:16;101527.59;;;9.07;75.83
69574;BME280;62840;52.366;5.980;2023-02-23T13:05:59;101523.19;;;9.06;75.83
69574;BME280;62840;52.366;5.980;2023-02-23T13:08:45;101520.53;;;9.06;75.83
69574;BME280;62840;52.366;5.980;2023-02-23T13:11:29;101525.69;;;9.09;75.99
69574;BME280;62840;52.366;5.980;2023-02-23T13:14:14;101514.81;;;9.12;76.05
69574;BME280;62840;52.366;5.980;2023-02-23T13:16:50;101516.34;;;9.16;75.99
69574;BME280;62840;52.366;5.980;2023-02-23T13:19:25;101512.53;;;9.20;75.96
69574;BME280;62840;52.366;5.980;2023-02-23T13:22:06;101513.16;;;9.24;75.88
69574;BME280;62840;52.366;5.980;2023-02-23T13:24:48;101506.00;;;9.24;75.79
69574;BME280;62840;52.366;5.980;2023-02-23T13:27:21;101505.09;;;9.25;75.71